Time;durP1;ratioP1;P1;durP2;ratioP2;P2;SDS_P1;SDS_P2;PMS_P1;PMS_P2;Temp;Humidity;BMP_temperature;BMP_pressure;BME280_temperature;BME280_humidity;BME280_pressure;Samples;Min_cycle;Max_cycle;Signal;HPM_P1;HPM_P2
2022/06/22 00:01:13;;;;;;;5.83;3.02;;;;;;;13.66;72.42;100009.16;2807127;83;20997;-92
2022/06/22 00:05:20;;;;;;;5.80;3.98;;;;;;;13.59;72.27;100018.28;2808511;82;20995;-92
2022/06/22 00:09:31;;;;;;;15.30;4.90;;;;;;;13.56;72.45;100023.93;2835720;83;21585;-93
2022/06/22 00:13:34;;;;;;;16.93;4.08;;;;;;;13.50;72.89;100025.38;2771135;84;21031;-93
2022/06/22 00:17:38;;;;;;;8.85;3.85;;;;;;;13.49;72.92;100023.69;2839366;82;20949;-92
2022/06/22 00:21:40;;;;;;;7.60;3.50;;;;;;;13.48;72.79;100025.20;2885793;81;21080;-90
2022/06/22 00:25:42;;;;;;;6.60;2.72;;;;;;;13.45;73.21;100021.47;2893932;81;20980;-91
2022/06/22 00:29:46;;;;;;;4.08;2.47;;;;;;;13.35;74.15;100018.83;2816941;81;21028;-94
2022/06/22 00:34:13;;;;;;;6.22;3.35;;;;;;;13.23;74.90;100011.52;2828012;83;21033;-94
2022/06/22 00:38:22;;;;;;;4.30;3.22;;;;;;;13.17;75.36;100001.45;2823515;82;21016;-94
2022/06/22 00:42:32;;;;;;;12.80;4.15;;;;;;;13.12;75.28;99993.87;2829377;82;21127;-90
2022/06/22 00:46:34;;;;;;;7.70;3.47;;;;;;;13.14;73.78;99997.23;2832271;82;21093;-93
2022/06/22 00:50:43;;;;;;;3.98;2.83;;;;;;;13.16;73.87;99999.77;2827981;82;21054;-92
2022/06/22 00:54:45;;;;;;;5.55;3.30;;;;;;;13.13;74.21;100000.42;2827951;83;21092;-94
2022/06/22 00:59:01;;;;;;;6.05;2.62;;;;;;;13.11;74.40;99990.86;2801176;83;21040;-92
2022/06/22 01:03:16;;;;;;;4.37;2.57;;;;;;;13.12;74.22;99999.22;2820993;82;21016;-93
2022/06/22 01:07:35;;;;;;;4.97;3.37;;;;;;;13.13;74.11;100004.91;2833060;82;21583;-91
2022/06/22 01:12:18;;;;;;;2.77;1.70;;;;;;;13.03;73.41;99996.95;2811452;83;21059;-91
2022/06/22 01:16:25;;;;;;;3.20;2.58;;;;;;;12.95;73.32;100003.03;2823082;83;21056;-94
2022/06/22 01:20:53;;;;;;;4.17;3.58;;;;;;;12.84;73.48;100006.73;2820808;83;21298;-91
2022/06/22 01:25:29;;;;;;;4.15;3.45;;;;;;;12.77;73.98;99994.98;2835209;83;21098;-92
2022/06/22 01:29:31;;;;;;;;;;;;;;;12.67;74.37;99982.16;2847608;81;21035;-95
2022/06/22 01:33:40;;;;;;;3.45;2.47;;;;;;;12.62;74.94;99975.95;2843786;82;20165;-94
2022/06/22 01:37:45;;;;;;;2.98;2.65;;;;;;;12.47;75.27;99984.07;2844163;82;20977;-94
2022/06/22 01:41:54;;;;;;;4.70;4.05;;;;;;;12.40;75.09;99991.33;2846014;82;21107;-94
2022/06/22 01:46:13;;;;;;;5.83;3.10;;;;;;;12.42;75.33;99988.50;2818427;83;21073;-92
2022/06/22 01:50:20;;;;;;;2.98;2.47;;;;;;;12.44;75.75;99989.19;2821830;83;21070;-94
2022/06/22 01:54:29;;;;;;;3.25;2.92;;;;;;;12.40;74.09;99982.00;2836418;82;21055;-95
2022/06/22 01:59:18;;;;;;;3.12;2.42;;;;;;;12.39;73.72;99973.64;2800138;84;21055;-93
2022/06/22 02:03:24;;;;;;;5.90;3.70;;;;;;;12.34;73.30;99987.06;2839205;83;21028;-94
2022/06/22 02:07:46;;;;;;;7.35;3.85;;;;;;;12.23;74.66;99994.23;2809860;83;21073;-92
2022/06/22 02:16:31;;;;;;;6.60;4.47;;;;;;;12.23;75.10;99992.08;2827252;83;21009;-95
2022/06/22 02:20:36;;;;;;;6.15;3.33;;;;;;;12.27;75.80;99982.28;2830703;82;21065;-94
2022/06/22 02:24:42;;;;;;;4.37;3.98;;;;;;;12.28;75.78;99972.47;2844826;82;21125;-92
2022/06/22 02:28:44;;;;;;;7.60;4.75;;;;;;;12.31;75.28;99976.18;2860985;82;21016;-91
2022/06/22 02:32:46;;;;;;;4.75;3.77;;;;;;;12.34;75.63;99978.55;2884048;81;21063;-92
2022/06/22 02:36:51;;;;;;;4.42;3.50;;;;;;;12.30;75.48;99993.17;2884479;81;21030;-94
2022/06/22 02:45:19;;;;;;;4.90;3.85;;;;;;;12.19;75.69;99982.18;2853526;81;21071;-92
2022/06/22 02:49:31;;;;;;;14.68;4.53;;;;;;;12.13;76.35;99978.25;2794617;83;21083;-94
2022/06/22 02:53:36;;;;;;;4.53;4.12;;;;;;;12.07;76.93;99984.65;2770143;84;21054;-91
2022/06/22 02:57:49;;;;;;;10.38;4.75;;;;;;;12.11;77.06;99990.06;2741011;85;21004;-96
2022/06/22 03:01:50;;;;;;;9.20;4.90;;;;;;;12.22;77.21;99980.55;2822149;83;21041;-92
2022/06/22 03:05:55;;;;;;;7.92;3.60;;;;;;;12.29;77.95;99976.82;2804884;83;21075;-92
2022/06/22 03:09:57;;;;;;;10.90;4.28;;;;;;;12.37;77.61;99976.10;2742854;85;21044;-91
2022/06/22 03:14:23;;;;;;;5.37;4.75;;;;;;;12.50;77.66;99978.44;2779800;84;21040;-92
2022/06/22 03:18:29;;;;;;;5.95;3.98;;;;;;;12.61;77.31;99972.08;2782115;84;21035;-92
2022/06/22 03:22:45;;;;;;;10.58;4.10;;;;;;;12.66;77.41;99980.00;2814108;83;21066;-90
2022/06/22 03:26:52;;;;;;;12.07;3.77;;;;;;;12.68;77.98;99982.53;2801962;84;21019;-94
2022/06/22 03:31:06;;;;;;;5.80;3.67;;;;;;;12.75;77.39;99984.95;2786884;84;20999;-91
2022/06/22 03:35:22;;;;;;;4.53;2.90;;;;;;;12.82;76.91;99983.86;2806064;83;21041;-88
2022/06/22 03:39:31;;;;;;;6.23;3.63;;;;;;;12.93;76.90;99987.66;2746484;84;21065;-90
2022/06/22 03:43:55;;;;;;;5.37;3.00;;;;;;;12.94;76.56;99978.66;2861640;81;21010;-89
2022/06/22 03:48:37;;;;;;;7.35;4.40;;;;;;;12.96;76.88;99963.33;2842985;81;21050;-91
2022/06/22 03:52:55;;;;;;;4.95;3.25;;;;;;;12.99;77.00;99975.55;2845898;81;21029;-94
2022/06/22 03:57:00;;;;;;;8.98;3.45;;;;;;;12.95;78.00;99983.00;2848596;83;21050;-93
2022/06/22 04:01:04;;;;;;;5.03;4.08;;;;;;;13.15;78.58;99985.56;2876815;81;21545;-93
2022/06/22 04:05:06;;;;;;;5.25;4.15;;;;;;;13.36;78.01;99988.45;2875576;81;21062;-88
2022/06/22 04:09:15;;;;;;;99.40;19.45;;;;;;;13.52;77.60;99992.66;2886961;81;20993;-93
2022/06/22 04:13:23;;;;;;;98.60;17.20;;;;;;;13.69;77.61;99999.02;2880647;81;21061;-94
2022/06/22 04:17:41;;;;;;;5.10;4.55;;;;;;;13.95;78.66;99994.69;2888019;81;21037;-93
2022/06/22 04:21:51;;;;;;;8.53;4.47;;;;;;;14.41;80.56;99987.33;2842714;81;21057;-95
2022/06/22 04:25:57;;;;;;;4.67;3.70;;;;;;;15.41;80.18;99984.55;2762376;85;20980;-95
2022/06/22 04:30:13;;;;;;;9.33;4.65;;;;;;;16.91;80.92;99975.83;2724800;85;21076;-94
2022/06/22 04:34:19;;;;;;;5.12;4.12;;;;;;;18.40;73.34;99965.84;2807377;83;21087;-95
2022/06/22 04:38:29;;;;;;;5.33;3.33;;;;;;;19.96;72.90;99971.97;2829446;81;21072;-93
2022/06/22 04:42:30;;;;;;;14.93;3.37;;;;;;;21.24;66.97;99969.46;2773042;85;21495;-94
2022/06/22 04:46:35;;;;;;;40.92;9.33;;;;;;;22.34;63.57;99974.73;2776063;85;21013;-91
2022/06/22 04:50:40;;;;;;;8.15;3.60;;;;;;;23.29;60.05;99973.40;2679812;86;21018;-93
2022/06/22 04:54:44;;;;;;;4.95;2.80;;;;;;;23.92;55.27;99983.91;2734128;86;21076;-91
2022/06/22 04:58:51;;;;;;;4.65;3.65;;;;;;;24.25;54.24;99981.97;2826076;83;21071;-91
2022/06/22 05:03:04;;;;;;;2.55;2.10;;;;;;;24.60;52.54;99980.56;2772464;85;21036;-90
2022/06/22 05:07:22;;;;;;;2.83;2.45;;;;;;;25.10;52.88;99989.94;2764804;85;21036;-93
2022/06/22 05:11:29;;;;;;;3.27;2.37;;;;;;;25.30;52.27;99982.02;2830892;83;21056;-94
2022/06/22 05:15:39;;;;;;;5.08;2.98;;;;;;;25.47;51.28;99987.66;2807574;82;21089;-88
2022/06/22 05:19:52;;;;;;;3.83;2.72;;;;;;;26.08;51.23;99988.89;2739040;85;21070;-92
2022/06/22 05:23:57;;;;;;;3.70;2.08;;;;;;;26.68;49.12;99977.98;2764124;85;21710;-93
2022/06/22 05:28:12;;;;;;;28.25;2.85;;;;;;;27.33;49.03;99976.54;2771526;84;21089;-88
2022/06/22 05:32:28;;;;;;;7.83;2.85;;;;;;;27.66;48.66;99981.77;2827826;82;21322;-90
2022/06/22 05:36:34;;;;;;;8.60;3.05;;;;;;;28.09;47.42;99984.36;2816667;82;21045;-91
2022/06/22 05:40:39;;;;;;;17.30;2.47;;;;;;;28.24;46.33;99982.97;2847142;82;21070;-91
2022/06/22 05:44:40;;;;;;;9.75;2.27;;;;;;;27.98;45.88;99982.56;2850594;83;21041;-90
2022/06/22 05:48:48;;;;;;;2.87;1.35;;;;;;;27.90;46.18;99987.91;2855383;83;21029;-89
2022/06/22 05:52:58;;;;;;;3.98;2.17;;;;;;;28.16;46.36;99984.78;2792300;84;21052;-90
2022/06/22 05:57:27;;;;;;;5.33;1.57;;;;;;;28.64;45.69;99988.72;2829645;82;21381;-90
2022/06/22 06:01:59;;;;;;;5.05;2.20;;;;;;;28.76;45.22;99987.78;2849664;82;21015;-94
2022/06/22 06:06:26;;;;;;;5.90;1.80;;;;;;;29.02;43.85;99975.78;2844340;83;21013;-94
2022/06/22 06:10:35;;;;;;;4.80;1.98;;;;;;;29.05;43.99;99972.53;2788372;84;21051;-93
2022/06/22 06:23:14;;;;;;;3.50;1.55;;;;;;;29.63;42.59;99958.32;2797814;82;29264;-90
2022/06/22 06:27:34;;;;;;;2.90;1.20;;;;;;;29.62;42.55;99961.63;2799578;83;21677;-91
2022/06/22 06:44:25;;;;;;;3.42;1.20;;;;;;;28.28;43.31;99960.88;2814883;82;21112;-91
2022/06/22 06:48:30;;;;;;;1.92;1.05;;;;;;;28.01;42.28;99960.20;2820106;83;21089;-92
2022/06/22 06:52:41;;;;;;;;;;;;;;;27.34;42.75;99959.89;2797169;82;21104;-89
2022/06/22 06:57:00;;;;;;;1.70;0.70;;;;;;;26.88;43.47;99966.67;2789099;83;20137;-93
2022/06/22 07:01:04;;;;;;;3.12;0.88;;;;;;;26.61;43.06;99975.38;2823497;82;21100;-91
2022/06/22 07:05:13;;;;;;;2.75;1.02;;;;;;;26.61;42.24;99974.02;2821213;81;21105;-91
2022/06/22 07:09:26;;;;;;;1.92;1.15;;;;;;;26.96;43.13;99965.45;2819294;83;21005;-91
2022/06/22 07:13:48;;;;;;;7.25;1.00;;;;;;;27.50;42.19;99962.34;2803211;83;21010;-90
2022/06/22 07:17:54;;;;;;;3.72;0.60;;;;;;;27.96;39.65;99962.02;2804994;83;21017;-92
2022/06/22 07:22:04;;;;;;;2.55;0.90;;;;;;;28.22;39.08;99961.37;2799400;83;21577;-92
2022/06/22 07:26:36;;;;;;;3.27;0.82;;;;;;;28.58;38.95;99971.95;2811310;83;21057;-89
2022/06/22 07:30:48;;;;;;;1.70;0.82;;;;;;;28.62;38.33;99968.19;2821714;83;21006;-92
2022/06/22 07:35:13;;;;;;;1.40;0.70;;;;;;;28.62;38.94;99962.16;2816917;83;21006;-85
2022/06/22 07:39:34;;;;;;;0.95;0.65;;;;;;;28.75;38.28;99956.83;2804057;83;20990;-88
2022/06/22 07:43:36;;;;;;;1.05;0.70;;;;;;;28.90;37.70;99956.77;2809580;83;21121;-90
2022/06/22 07:47:43;;;;;;;3.45;0.60;;;;;;;28.91;38.62;99960.63;2786782;84;21038;-91
2022/06/22 07:51:53;;;;;;;1.10;0.60;;;;;;;28.82;39.08;99955.30;2792644;82;21060;-89
2022/06/22 07:56:21;;;;;;;1.80;0.85;;;;;;;28.93;37.41;99957.09;2826224;82;21022;-91
2022/06/22 08:00:26;;;;;;;1.32;0.88;;;;;;;29.10;37.49;99945.23;2808479;82;21026;-92
2022/06/22 08:04:37;;;;;;;1.72;0.80;;;;;;;29.48;37.35;99939.84;2819415;82;21375;-93
2022/06/22 08:08:53;;;;;;;0.82;0.60;;;;;;;29.77;37.58;99940.88;2818378;82;21041;-92
2022/06/22 08:13:21;;;;;;;2.52;0.95;;;;;;;29.76;37.16;99935.13;2786190;83;21042;-93
2022/06/22 08:17:45;;;;;;;0.65;0.65;;;;;;;29.93;36.95;99933.62;2783551;83;21030;-91
2022/06/22 08:21:51;;;;;;;13.90;2.60;;;;;;;30.05;37.09;99929.33;2761155;83;21069;-92
2022/06/22 08:25:54;;;;;;;1.75;0.40;;;;;;;30.06;37.79;99925.50;2793071;83;21538;-93
2022/06/22 08:29:57;;;;;;;1.50;0.95;;;;;;;30.33;37.00;99926.75;2799729;83;21105;-88
2022/06/22 08:34:01;;;;;;;3.37;1.05;;;;;;;30.51;36.58;99917.77;2790659;83;21034;-86
2022/06/22 08:38:33;;;;;;;1.75;0.70;;;;;;;30.69;37.22;99916.48;2773476;82;21078;-93
2022/06/22 08:43:16;;;;;;;3.20;0.93;;;;;;;30.46;35.15;99916.36;2803360;82;21068;-92
2022/06/22 08:47:26;;;;;;;1.52;0.47;;;;;;;30.15;34.78;99905.26;2815440;82;21043;-91
2022/06/22 08:52:09;;;;;;;11.28;2.25;;;;;;;30.11;36.38;99916.48;2837543;82;21092;-90
2022/06/22 08:56:44;;;;;;;1.67;0.50;;;;;;;30.25;36.69;99913.52;2825503;82;21072;-94
2022/06/22 09:01:06;;;;;;;;;;;;;;;30.37;36.80;99912.48;2701902;86;21132;-91
2022/06/22 09:05:42;;;;;;;1.22;0.30;;;;;;;30.47;35.93;99909.80;2816499;82;20574;-95
2022/06/22 09:10:17;;;;;;;19.05;1.12;;;;;;;30.47;35.88;99902.38;2808045;82;21025;-93
2022/06/22 09:14:41;;;;;;;1.67;0.62;;;;;;;30.52;35.94;99902.95;2823513;83;21088;-93
2022/06/22 09:19:17;;;;;;;1.05;0.40;;;;;;;30.66;35.01;99898.34;2741539;84;21104;-92
2022/06/22 09:23:45;;;;;;;1.20;0.60;;;;;;;30.53;36.78;99900.48;2816166;83;21029;-92
2022/06/22 09:28:01;;;;;;;1.77;0.68;;;;;;;30.33;34.46;99899.31;2782895;83;21133;-92
2022/06/22 09:32:49;;;;;;;1.42;0.62;;;;;;;30.32;35.34;99891.34;2791270;82;20960;-94
2022/06/22 09:36:59;;;;;;;124.60;20.60;;;;;;;30.30;34.50;99895.73;2785915;83;21074;-90
2022/06/22 09:41:51;;;;;;;3.58;0.95;;;;;;;30.30;35.00;99888.88;2742890;84;21064;-95
2022/06/22 09:46:18;;;;;;;2.58;0.50;;;;;;;30.29;34.73;99897.36;2719269;84;21009;-93
2022/06/22 09:50:51;;;;;;;12.98;2.05;;;;;;;30.14;36.59;99904.41;2730212;84;21111;-90
2022/06/22 09:59:54;;;;;;;1.57;0.70;;;;;;;30.00;35.02;99897.19;2781695;82;21117;-92
2022/06/22 10:04:34;;;;;;;1.82;0.82;;;;;;;29.85;33.74;99885.59;2819008;81;21067;-93
2022/06/22 10:09:01;;;;;;;0.95;0.47;;;;;;;29.82;34.30;99879.27;2832443;82;21073;-89
2022/06/22 10:13:40;;;;;;;3.62;0.47;;;;;;;29.84;34.17;99866.13;2814415;82;21063;-92
2022/06/22 10:18:32;;;;;;;1.05;0.35;;;;;;;29.71;33.69;99860.56;2844220;81;21109;-91
2022/06/22 10:23:09;;;;;;;2.20;0.42;;;;;;;29.72;34.22;99859.48;2828993;82;21053;-89
2022/06/22 10:27:35;;;;;;;3.72;0.53;;;;;;;29.53;34.74;99858.25;2773186;83;21077;-91
2022/06/22 10:31:56;;;;;;;1.85;0.40;;;;;;;29.24;33.58;99854.42;2808944;82;21077;-91
2022/06/22 10:36:06;;;;;;;1.95;0.70;;;;;;;29.24;34.11;99864.00;2819121;82;21085;-90
2022/06/22 10:45:21;;;;;;;0.55;0.40;;;;;;;29.46;35.43;99864.77;2846256;81;21097;-91
2022/06/22 10:49:30;;;;;;;3.05;0.30;;;;;;;29.71;35.82;99865.21;2837612;81;21175;-93
2022/06/22 10:54:06;;;;;;;1.12;0.60;;;;;;;29.71;35.25;99850.98;2809373;82;20990;-90
2022/06/22 10:58:28;;;;;;;3.20;0.60;;;;;;;29.77;35.38;99841.69;2812195;82;21496;-91
2022/06/22 11:03:02;;;;;;;4.50;1.32;;;;;;;29.75;35.57;99837.02;2802567;82;21604;-91
2022/06/22 11:07:45;;;;;;;1.17;1.07;;;;;;;29.94;34.89;99842.05;2827889;82;21089;-87
2022/06/22 11:12:28;;;;;;;22.58;3.92;;;;;;;29.92;34.22;99843.68;2831935;82;21053;-92
2022/06/22 11:16:55;;;;;;;1.77;1.10;;;;;;;29.82;34.15;99851.02;2834862;81;21026;-89
2022/06/22 11:21:29;;;;;;;1.20;0.55;;;;;;;29.76;35.66;99849.63;2685130;86;21080;-91
2022/06/22 11:35:33;;;;;;;0.95;0.53;;;;;;;29.72;35.94;99862.75;2583439;90;21514;-95
2022/06/22 11:40:12;;;;;;;1.82;0.95;;;;;;;29.81;36.45;99863.08;2565744;91;21149;-93
2022/06/22 11:45:49;;;;;;;1.45;0.78;;;;;;;29.68;35.58;99858.36;2564720;92;21093;-89
2022/06/22 11:49:19;;;;;;;2.97;0.50;;;;;;;29.71;35.39;99859.20;2573410;91;21134;-91
2022/06/22 11:53:35;;;;;;;1.42;0.95;;;;;;;29.61;35.16;99862.70;2580661;91;21814;-92
2022/06/22 11:57:50;;;;;;;1.55;0.70;;;;;;;29.68;35.28;99863.84;2556722;90;21066;-90
2022/06/22 12:02:32;;;;;;;2.27;0.85;;;;;;;29.78;35.95;99855.67;2604547;88;21095;-88
2022/06/22 12:06:42;;;;;;;1.87;0.40;;;;;;;29.81;35.97;99860.34;2629383;88;21036;-89
2022/06/22 12:10:52;;;;;;;1.65;0.78;;;;;;;29.76;35.05;99849.63;2633684;88;21134;-93
2022/06/22 12:15:21;;;;;;;1.37;0.95;;;;;;;29.84;36.79;99846.09;2683121;83;21160;-86
2022/06/22 12:24:32;;;;;;;2.40;1.30;;;;;;;29.83;34.53;99838.97;2773532;83;21091;-60
2022/06/22 12:28:54;;;;;;;1.10;0.90;;;;;;;29.87;34.66;99830.48;2658111;86;21023;-63
2022/06/22 12:42:35;;;;;;;3.47;1.42;;;;;;;30.38;36.91;99834.58;2689595;87;21443;-93
2022/06/22 12:46:48;;;;;;;1.80;0.98;;;;;;;30.48;34.52;99825.03;2683150;87;21065;-92
2022/06/22 12:51:34;;;;;;;72.12;10.60;;;;;;;30.58;34.46;99825.03;2699107;86;21130;-86
2022/06/22 12:55:45;;;;;;;6.58;0.95;;;;;;;30.73;33.91;99811.10;2679769;87;21007;-91
2022/06/22 12:59:55;;;;;;;1.77;0.50;;;;;;;31.01;34.96;99801.52;2697614;86;21053;-95
2022/06/22 13:04:07;;;;;;;3.05;0.60;;;;;;;31.12;33.81;99789.14;2668818;87;21465;-93
2022/06/22 13:08:14;;;;;;;2.20;0.60;;;;;;;31.23;33.27;99783.11;2787163;83;21042;-91
2022/06/22 13:12:27;;;;;;;1.05;0.68;;;;;;;31.10;31.62;99783.09;2771957;83;20974;-94
2022/06/22 13:16:37;;;;;;;1.05;0.78;;;;;;;30.90;30.79;99782.84;2768812;84;21061;-88
2022/06/22 13:20:59;;;;;;;1.17;0.45;;;;;;;30.70;30.66;99767.73;2757543;84;21020;-92
2022/06/22 13:25:12;;;;;;;0.60;0.40;;;;;;;30.54;31.35;99770.42;2767455;83;21069;-84
2022/06/22 13:29:33;;;;;;;0.42;0.40;;;;;;;30.55;31.38;99763.84;2693893;86;21067;-89
2022/06/22 13:33:43;;;;;;;2.58;0.78;;;;;;;30.63;32.99;99762.52;2685821;87;21022;-89
2022/06/22 13:37:56;;;;;;;0.98;0.60;;;;;;;30.88;31.22;99750.73;2702820;86;21501;-88
2022/06/22 13:42:21;;;;;;;2.02;0.65;;;;;;;31.01;31.18;99747.13;2675561;86;21156;-92
2022/06/22 13:46:34;;;;;;;2.80;0.85;;;;;;;30.90;32.35;99749.06;2678772;86;21099;-93
2022/06/22 13:51:20;;;;;;;1.67;0.60;;;;;;;31.05;32.71;99748.22;2681778;87;20992;-92
2022/06/22 13:55:29;;;;;;;0.80;0.70;;;;;;;31.23;32.35;99748.78;2658644;88;21037;-91
2022/06/22 14:00:00;;;;;;;3.20;0.82;;;;;;;31.34;32.38;99745.73;2696149;86;21072;-94
2022/06/22 14:04:25;;;;;;;39.08;7.35;;;;;;;31.36;32.73;99741.91;2707733;85;21108;-86
2022/06/22 14:08:42;;;;;;;;;;;;;;;31.36;33.14;99745.47;2762551;84;21084;-90
2022/06/22 14:13:00;;;;;;;1.37;1.02;;;;;;;31.30;32.91;99738.34;2712982;85;20090;-91
2022/06/22 14:17:15;;;;;;;5.10;1.22;;;;;;;31.32;32.38;99734.77;2751018;84;21071;-83
2022/06/22 14:21:51;;;;;;;7.10;1.00;;;;;;;31.25;32.80;99731.47;2745102;84;21068;-91
2022/06/22 14:26:20;;;;;;;3.50;0.80;;;;;;;31.18;31.81;99722.94;2762837;84;21590;-90
2022/06/22 14:31:01;;;;;;;2.05;0.78;;;;;;;31.07;32.36;99725.45;2755081;85;21085;-86
2022/06/22 14:35:23;;;;;;;2.40;0.57;;;;;;;31.09;32.34;99721.88;2762404;84;21027;-88
2022/06/22 14:39:38;;;;;;;1.65;1.25;;;;;;;31.14;32.04;99727.35;2769299;83;21052;-90
2022/06/22 14:44:06;;;;;;;2.50;0.80;;;;;;;31.09;31.24;99721.88;2764980;84;21083;-93
2022/06/22 14:48:31;;;;;;;2.60;0.70;;;;;;;31.22;31.87;99714.17;2767993;84;21031;-90
2022/06/22 14:52:55;;;;;;;0.95;0.60;;;;;;;31.28;31.24;99710.34;2677822;86;21450;-93
2022/06/22 14:57:23;;;;;;;2.45;1.10;;;;;;;31.28;31.80;99703.47;2803028;83;21367;-93
2022/06/22 15:01:33;;;;;;;3.77;1.00;;;;;;;31.11;32.77;99697.70;2737056;85;20946;-90
2022/06/22 15:06:07;;;;;;;0.88;0.80;;;;;;;31.21;31.72;99701.01;2741694;84;21037;-93
2022/06/22 15:10:23;;;;;;;2.52;1.07;;;;;;;31.17;32.75;99694.40;2718342;85;21095;-91
2022/06/22 15:15:14;;;;;;;2.83;0.93;;;;;;;31.17;32.72;99691.09;2715319;87;21040;-92
2022/06/22 15:19:26;;;;;;;1.92;0.60;;;;;;;31.27;32.52;99686.72;2721690;85;21100;-90
2022/06/22 15:23:48;;;;;;;2.15;1.32;;;;;;;31.29;31.68;99690.81;2663265;87;21125;-92
2022/06/22 15:28:16;;;;;;;2.27;0.57;;;;;;;31.32;31.50;99685.31;2737331;86;21004;-94
2022/06/22 15:32:32;;;;;;;5.00;1.25;;;;;;;31.37;31.81;99679.80;2736533;86;20999;-93
2022/06/22 15:36:39;;;;;;;1.47;0.62;;;;;;;31.35;31.63;99679.27;2714646;86;21030;-84
2022/06/22 15:41:03;;;;;;;0.85;0.62;;;;;;;31.36;31.57;99670.48;2727857;86;21077;-90
2022/06/22 15:45:38;;;;;;;34.97;7.20;;;;;;;31.36;31.56;99668.54;2716002;85;21021;-89
2022/06/22 15:49:49;;;;;;;;;;;;;;;31.30;32.34;99666.92;2719942;86;21006;-95
2022/06/22 15:54:01;;;;;;;0.93;0.80;;;;;;;31.14;31.34;99655.95;2715227;86;20106;-92
2022/06/22 15:58:14;;;;;;;1.77;0.70;;;;;;;31.13;32.12;99659.80;2717553;85;21116;-86
2022/06/22 16:02:44;;;;;;;0.62;0.57;;;;;;;31.01;31.19;99668.34;2713972;84;21038;-92
2022/06/22 16:06:57;;;;;;;0.93;0.57;;;;;;;30.88;31.57;99664.25;2719923;86;21612;-89
2022/06/22 16:15:46;;;;;;;0.90;0.60;;;;;;;30.74;31.20;99654.92;2737060;84;21061;-88
2022/06/22 16:19:59;;;;;;;1.65;0.80;;;;;;;30.67;31.46;99653.83;2723279;86;21021;-89
2022/06/22 16:24:21;;;;;;;4.40;1.32;;;;;;;30.71;31.77;99656.86;2726588;84;21152;-91
2022/06/22 16:28:43;;;;;;;1.57;0.90;;;;;;;30.72;31.72;99651.64;2744401;86;21043;-88
2022/06/22 16:33:03;;;;;;;0.70;0.70;;;;;;;30.76;31.75;99665.91;2745801;84;21801;-87
2022/06/22 16:37:19;;;;;;;2.90;1.22;;;;;;;30.81;32.32;99657.39;2725335;84;21065;-88
2022/06/22 16:41:34;;;;;;;1.27;0.88;;;;;;;30.70;32.37;99664.25;2764849;84;21057;-93
2022/06/22 16:45:41;;;;;;;0.72;0.53;;;;;;;30.27;35.77;99659.03;2754806;84;21056;-94
2022/06/22 16:49:57;;;;;;;1.75;0.88;;;;;;;30.03;35.75;99661.45;2760562;84;21080;-86
2022/06/22 16:54:08;;;;;;;4.37;1.65;;;;;;;29.71;36.49;99664.63;2760396;85;21093;-89
2022/06/22 17:02:48;;;;;;;1.50;0.80;;;;;;;29.17;38.03;99671.18;2716476;86;21185;-60
2022/06/22 17:07:42;;;;;;;2.30;0.80;;;;;;;28.95;38.57;99669.97;2758954;85;21094;-61
2022/06/22 17:11:44;;;;;;;1.12;1.00;;;;;;;28.71;39.13;99666.22;2714269;86;21913;-64
2022/06/22 17:16:11;;;;;;;45.43;8.75;;;;;;;28.52;40.22;99670.72;2757995;86;21158;-63
2022/06/22 17:20:22;;;;;;;9.68;1.67;;;;;;;28.22;41.33;99672.92;2759946;86;21010;-60
2022/06/22 17:24:31;;;;;;;1.85;1.10;;;;;;;28.06;41.59;99675.98;2764550;84;21037;-60
2022/06/22 17:29:13;;;;;;;5.80;1.27;;;;;;;27.91;41.58;99674.48;2710178;86;21051;-62
2022/06/22 17:37:45;;;;;;;3.05;0.72;;;;;;;27.75;41.68;99686.59;2839678;80;21060;-91
2022/06/22 17:42:07;;;;;;;2.83;1.27;;;;;;;27.72;42.55;99685.73;2794566;83;21066;-90
2022/06/22 17:46:16;;;;;;;21.57;3.60;;;;;;;27.56;43.64;99684.70;2811445;83;21043;-88
2022/06/22 17:50:37;;;;;;;9.25;2.35;;;;;;;27.28;45.37;99695.22;2799247;84;21165;-85
2022/06/22 17:54:46;;;;;;;5.92;2.02;;;;;;;26.88;45.44;99667.09;2786528;84;20974;-89
2022/06/22 17:59:01;;;;;;;4.65;1.80;;;;;;;26.88;45.44;99667.09;2790784;84;21012;-90
2022/06/22 18:03:23;;;;;;;5.83;2.12;;;;;;;26.90;45.83;99690.30;2797635;83;20986;-93
2022/06/22 18:07:30;;;;;;;22.58;11.03;;;;;;;26.80;46.29;99699.67;2800458;83;21070;-93
2022/06/22 18:11:42;;;;;;;32.05;8.00;;;;;;;26.61;46.54;99697.71;2773511;84;20996;-92
2022/06/22 18:15:49;;;;;;;3.90;1.92;;;;;;;26.48;46.77;99696.14;2794152;83;21066;-85
2022/06/22 18:19:58;;;;;;;5.58;2.50;;;;;;;26.31;47.22;99694.20;2759389;84;20991;-90
2022/06/22 18:24:07;;;;;;;21.48;10.28;;;;;;;26.12;47.53;99694.93;2759441;84;21038;-84
2022/06/22 18:28:23;;;;;;;10.30;5.10;;;;;;;25.89;48.23;99706.22;2755104;83;21033;-95
2022/06/22 18:32:31;;;;;;;4.72;2.30;;;;;;;25.71;48.79;99707.20;2783065;81;21549;-90
2022/06/22 18:45:26;;;;;;;6.05;3.95;;;;;;;25.13;50.34;99726.59;2805507;82;20991;-89
2022/06/22 18:49:55;;;;;;;23.32;5.78;;;;;;;25.00;50.42;99727.66;2824988;82;20995;-90
2022/06/22 18:54:14;;;;;;;17.77;8.08;;;;;;;24.80;51.18;99730.17;2825201;82;21039;-92
2022/06/22 18:58:23;;;;;;;9.40;2.55;;;;;;;24.61;51.43;99737.02;2828226;84;21006;-85
2022/06/22 19:02:32;;;;;;;2.08;1.35;;;;;;;24.39;51.73;99745.69;2826313;82;21065;-92
2022/06/22 19:06:52;;;;;;;2.25;1.20;;;;;;;24.27;52.00;99754.31;2821039;82;21063;-93
2022/06/22 19:24:06;;;;;;;4.58;1.98;;;;;;;23.49;53.96;99765.63;2905837;80;21115;-92
2022/06/22 19:28:34;;;;;;;2.10;1.37;;;;;;;23.30;54.05;99769.36;2895777;80;21107;-90
2022/06/22 19:32:41;;;;;;;4.78;1.62;;;;;;;23.08;54.49;99777.86;2887236;80;21399;-90
2022/06/22 19:37:11;;;;;;;38.08;9.45;;;;;;;22.76;55.52;99772.45;2896852;80;21639;-91
2022/06/22 19:41:29;;;;;;;13.15;2.15;;;;;;;22.46;56.20;99774.40;2881111;80;21035;-89
2022/06/22 19:45:49;;;;;;;3.45;1.87;;;;;;;22.20;56.89;99769.40;2879717;80;21341;-90
2022/06/22 19:50:22;;;;;;;13.80;3.25;;;;;;;21.96;57.49;99774.50;2902067;80;21040;-84
2022/06/22 19:55:16;;;;;;;3.95;1.82;;;;;;;21.78;57.78;99781.95;2839262;82;21012;-90
2022/06/22 19:59:20;;;;;;;7.65;2.10;;;;;;;21.62;58.23;99775.10;2843502;82;21051;-88
2022/06/22 20:03:26;;;;;;;5.72;2.37;;;;;;;21.39;58.70;99777.71;2852678;82;21056;-94
2022/06/22 20:07:59;;;;;;;6.05;1.77;;;;;;;21.29;58.22;99774.61;2824278;82;21124;-84
2022/06/22 20:12:11;;;;;;;6.87;1.75;;;;;;;21.24;58.31;99774.73;2848688;82;21019;-95
2022/06/22 20:29:09;;;;;;;9.10;2.95;;;;;;;20.90;58.07;99793.31;2727647;86;21079;-93
2022/06/22 20:33:16;;;;;;;14.00;3.40;;;;;;;20.77;58.15;99799.50;2735775;85;21062;-91
2022/06/22 20:37:21;;;;;;;9.85;2.47;;;;;;;20.62;58.83;99801.84;2723297;85;21107;-89
2022/06/22 20:46:12;;;;;;;34.73;8.10;;;;;;;20.41;59.46;99805.55;2717331;86;20116;-94
2022/06/22 20:50:21;;;;;;;73.20;15.35;;;;;;;20.29;59.47;99812.05;2698660;86;21061;-94
2022/06/22 20:54:31;;;;;;;50.63;8.30;;;;;;;20.17;59.94;99810.44;2715622;85;21064;-95
2022/06/22 20:58:38;;;;;;;35.80;7.85;;;;;;;20.05;60.72;99815.58;2717599;85;20993;-94
2022/06/22 21:02:47;;;;;;;2.17;1.92;;;;;;;19.86;61.51;99821.67;2738427;85;21049;-93
2022/06/22 21:07:00;;;;;;;2.95;1.92;;;;;;;19.76;62.60;99833.63;2711665;85;21033;-96
2022/06/22 21:11:24;;;;;;;4.58;2.08;;;;;;;19.75;62.59;99842.77;2731077;85;21033;-94
2022/06/22 21:15:35;;;;;;;4.20;2.15;;;;;;;19.69;62.86;99837.63;2721833;85;21053;-91
2022/06/22 21:20:00;;;;;;;3.22;1.57;;;;;;;19.62;62.76;99835.91;2722089;85;21120;-96
2022/06/22 21:24:03;;;;;;;6.05;2.40;;;;;;;19.60;63.16;99848.77;2718444;86;21073;-96
2022/06/22 21:28:13;;;;;;;4.33;2.33;;;;;;;19.58;63.10;99838.69;2731908;85;21676;-89
2022/06/22 21:32:28;;;;;;;3.37;2.50;;;;;;;19.48;63.27;99843.08;2758687;85;21040;-95
2022/06/22 21:37:08;;;;;;;3.87;1.92;;;;;;;19.37;63.77;99853.88;2756505;84;21099;-93
2022/06/22 21:41:56;;;;;;;3.27;1.82;;;;;;;19.26;63.63;99861.48;2777291;85;21158;-96
2022/06/22 21:46:25;;;;;;;6.65;2.67;;;;;;;19.04;63.90;99860.64;2747879;85;21047;-93
2022/06/22 21:50:54;;;;;;;3.87;3.00;;;;;;;18.92;64.62;99861.63;2763062;85;21001;-90
2022/06/22 21:55:16;;;;;;;5.25;3.25;;;;;;;18.86;65.13;99867.77;2760288;83;21058;-95
2022/06/22 21:59:57;;;;;;;6.05;3.20;;;;;;;18.89;65.42;99871.45;2781299;83;21064;-95
2022/06/22 22:04:13;;;;;;;2.98;1.80;;;;;;;18.88;65.74;99875.17;2763485;84;21044;-91